createdAt,value
2023-03-26T00:01:15.783Z,6.81
2023-03-26T00:03:47.483Z,6.86
2023-03-26T00:06:16.956Z,6.76
2023-03-26T00:08:45.983Z,6.82
2023-03-26T00:11:16.199Z,6.82
2023-03-26T00:13:44.227Z,6.86
2023-03-26T00:16:14.097Z,6.79
2023-03-26T00:18:43.826Z,6.91
2023-03-26T00:21:15.481Z,6.68
2023-03-26T00:23:44.175Z,6.92
2023-03-26T00:26:11.723Z,6.76
2023-03-26T00:28:43.112Z,6.83
2023-03-26T00:31:16.139Z,6.94
2023-03-26T00:33:44.263Z,6.66
2023-03-26T00:36:17.741Z,6.77
2023-03-26T00:38:48.093Z,6.72
2023-03-26T00:41:18.133Z,6.75
2023-03-26T00:43:49.536Z,6.70
2023-03-26T00:46:18.544Z,6.85
2023-03-26T00:48:47.243Z,6.60
2023-03-26T00:51:16.637Z,6.65
2023-03-26T00:53:48.944Z,6.77
2023-03-26T00:56:17.303Z,6.67
2023-03-26T00:58:45.667Z,6.81
2023-03-26T01:01:16.159Z,6.72
2023-03-26T01:04:00.903Z,6.65
2023-03-26T01:06:36.829Z,6.77
2023-03-26T01:09:19.512Z,6.79
2023-03-26T01:11:48.807Z,6.63
2023-03-26T01:14:27.322Z,6.80
2023-03-26T01:17:02.142Z,6.57
2023-03-26T01:19:34.436Z,6.71
2023-03-26T01:22:02.066Z,6.56
2023-03-26T01:24:29.664Z,6.53
2023-03-26T01:27:02.444Z,6.63
2023-03-26T01:29:49.196Z,6.60
2023-03-26T01:32:28.226Z,6.40
2023-03-26T01:35:23.523Z,6.42
2023-03-26T01:38:29.739Z,6.54
2023-03-26T01:41:06.107Z,6.56
2023-03-26T01:43:46.398Z,6.65
2023-03-26T01:46:16.508Z,6.61
2023-03-26T01:48:46.440Z,6.56
2023-03-26T01:51:16.928Z,6.71
2023-03-26T01:53:47.177Z,6.59
2023-03-26T01:56:20.516Z,6.60
2023-03-26T02:02:13.263Z,6.70
2023-03-26T02:05:05.585Z,6.62
2023-03-26T02:07:42.160Z,6.69
2023-03-26T02:10:17.384Z,6.61
2023-03-26T02:12:45.143Z,6.57
2023-03-26T02:15:13.841Z,6.61
2023-03-26T02:17:41.788Z,6.66
2023-03-26T02:20:14.759Z,6.81
2023-03-26T02:22:46.163Z,6.66
2023-03-26T02:25:16.662Z,6.68
2023-03-26T02:27:45.193Z,6.74
2023-03-26T02:30:20.930Z,6.95
2023-03-26T02:32:52.979Z,6.86
2023-03-26T02:35:22.582Z,7.11
2023-03-26T02:37:51.274Z,7.24
2023-03-26T02:40:21.447Z,7.13
2023-03-26T02:42:49.403Z,7.02
2023-03-26T02:45:17.323Z,7.01
2023-03-26T02:47:46.426Z,6.96
2023-03-26T02:50:14.073Z,6.95
2023-03-26T02:52:42.608Z,6.87
2023-03-26T02:55:10.000Z,6.90
2023-03-26T02:57:39.351Z,7.16
2023-03-26T03:00:55.389Z,7.32
2023-03-26T03:03:24.823Z,7.21
2023-03-26T03:05:53.292Z,7.48
2023-03-26T03:08:22.930Z,7.48
2023-03-26T03:11:01.210Z,7.52
2023-03-26T03:13:29.126Z,7.42
2023-03-26T03:15:57.635Z,7.34
2023-03-26T03:18:25.721Z,7.19
2023-03-26T03:20:54.349Z,7.22
2023-03-26T03:23:22.413Z,7.12
2023-03-26T03:25:51.280Z,7.26
2023-03-26T03:28:19.544Z,7.42
2023-03-26T03:30:47.831Z,7.49
2023-03-26T03:33:15.238Z,7.48
2023-03-26T03:35:43.145Z,7.40
2023-03-26T03:38:11.553Z,7.36
2023-03-26T03:40:39.409Z,7.20
2023-03-26T03:43:06.971Z,7.27
2023-03-26T03:45:34.563Z,7.33
2023-03-26T03:48:02.782Z,7.42
2023-03-26T03:50:30.463Z,7.53
2023-03-26T03:52:59.526Z,7.59
2023-03-26T03:55:28.501Z,7.72
2023-03-26T03:57:57.174Z,7.69
2023-03-26T04:00:24.964Z,7.73
2023-03-26T04:02:54.839Z,7.96
2023-03-26T04:05:23.765Z,7.87
2023-03-26T04:07:51.470Z,7.76
2023-03-26T04:10:18.918Z,7.76
2023-03-26T04:12:46.329Z,7.77
2023-03-26T04:15:14.368Z,7.87
2023-03-26T04:17:47.543Z,7.87
2023-03-26T04:20:19.548Z,7.88
2023-03-26T04:22:47.061Z,7.96
2023-03-26T04:25:15.880Z,8.21
2023-03-26T04:27:45.003Z,8.57
2023-03-26T04:30:17.506Z,8.66
2023-03-26T04:32:45.657Z,8.60
2023-03-26T04:35:17.658Z,8.84
2023-03-26T04:37:46.335Z,8.53
2023-03-26T04:40:21.187Z,8.67
2023-03-26T04:42:49.055Z,8.52
2023-03-26T04:45:23.106Z,8.47
2023-03-26T04:47:52.193Z,8.15
2023-03-26T04:50:19.725Z,7.90
2023-03-26T04:52:47.551Z,7.77
2023-03-26T04:58:06.523Z,7.51
2023-03-26T05:00:34.160Z,7.75
2023-03-26T05:03:04.013Z,7.89
2023-03-26T05:05:31.856Z,8.04
2023-03-26T05:07:59.622Z,8.03
2023-03-26T05:10:27.443Z,7.90
2023-03-26T05:12:54.754Z,7.85
2023-03-26T05:15:22.646Z,8.06
2023-03-26T05:17:50.337Z,7.85
2023-03-26T05:20:30.792Z,8.05
2023-03-26T05:22:58.252Z,8.08
2023-03-26T05:25:26.535Z,8.34
2023-03-26T05:27:54.081Z,8.39
2023-03-26T05:30:22.999Z,8.40
2023-03-26T05:32:51.375Z,8.39
2023-03-26T05:35:19.842Z,8.35
2023-03-26T05:37:50.502Z,8.36
2023-03-26T05:40:18.342Z,8.50
2023-03-26T05:42:46.508Z,8.19
2023-03-26T05:45:15.810Z,8.16
2023-03-26T05:47:44.014Z,8.24
2023-03-26T05:52:50.034Z,8.25
2023-03-26T05:55:19.797Z,8.42
2023-03-26T06:00:25.781Z,8.57
2023-03-26T06:03:01.126Z,8.59
2023-03-26T06:05:38.245Z,8.60
2023-03-26T06:08:07.254Z,8.66
2023-03-26T06:10:39.026Z,8.72
2023-03-26T06:13:07.268Z,8.75
2023-03-26T06:15:35.685Z,8.61
2023-03-26T06:18:05.261Z,8.68
2023-03-26T06:20:38.242Z,8.50
2023-03-26T06:23:07.280Z,8.54
2023-03-26T06:25:35.616Z,8.33
2023-03-26T06:28:03.822Z,8.32
2023-03-26T06:30:33.876Z,8.06
2023-03-26T06:33:03.021Z,8.22
2023-03-26T06:35:43.714Z,8.21
2023-03-26T06:38:43.322Z,8.04
2023-03-26T06:41:12.331Z,8.03
2023-03-26T06:43:39.845Z,8.07
2023-03-26T06:46:07.337Z,8.20
2023-03-26T06:48:35.733Z,8.19
2023-03-26T06:51:04.150Z,8.20
2023-03-26T06:53:31.666Z,8.14
2023-03-26T06:55:59.114Z,8.18
2023-03-26T06:58:27.356Z,8.20
2023-03-26T07:00:56.060Z,8.31
2023-03-26T07:03:24.206Z,8.26
2023-03-26T07:05:51.608Z,8.33
2023-03-26T07:08:19.016Z,8.27
2023-03-26T07:10:48.835Z,8.24
2023-03-26T07:13:18.799Z,8.14
2023-03-26T07:15:52.004Z,8.01
2023-03-26T07:18:19.469Z,8.18
2023-03-26T07:20:47.336Z,8.14
2023-03-26T07:23:21.232Z,8.10
2023-03-26T07:25:54.523Z,8.15
2023-03-26T07:29:04.701Z,8.54
2023-03-26T07:35:32.894Z,8.52
2023-03-26T07:38:18.819Z,8.64
2023-03-26T07:40:46.449Z,8.47
2023-03-26T07:43:45.387Z,8.43
2023-03-26T07:46:14.469Z,8.26
2023-03-26T07:48:44.354Z,8.38
2023-03-26T07:51:12.975Z,8.42
2023-03-26T07:53:40.675Z,8.31
2023-03-26T07:56:12.670Z,8.39
2023-03-26T07:58:46.682Z,8.45
2023-03-26T08:01:43.895Z,8.49
2023-03-26T08:04:28.379Z,8.50
2023-03-26T08:07:11.913Z,8.58
2023-03-26T08:09:57.001Z,8.65
2023-03-26T08:12:50.665Z,8.65
2023-03-26T08:16:11.225Z,8.31
2023-03-26T08:19:06.905Z,8.43
2023-03-26T08:21:56.579Z,8.49
2023-03-26T08:24:24.064Z,8.65
2023-03-26T08:27:22.796Z,8.50
2023-03-26T08:30:18.226Z,8.36
2023-03-26T08:33:23.188Z,8.33
2023-03-26T08:35:52.458Z,8.26
2023-03-26T08:38:21.284Z,8.47
2023-03-26T08:41:15.480Z,8.58
2023-03-26T08:44:02.827Z,8.61
2023-03-26T08:46:49.119Z,8.63
2023-03-26T08:49:44.860Z,8.39
2023-03-26T08:52:19.946Z,8.45
2023-03-26T08:55:23.112Z,8.38
2023-03-26T08:58:35.314Z,8.58
2023-03-26T09:01:21.618Z,8.76
2023-03-26T09:10:39.020Z,8.44
2023-03-26T09:13:28.564Z,8.35
2023-03-26T09:16:45.017Z,8.27
2023-03-26T09:23:22.159Z,8.38
2023-03-26T09:29:26.823Z,8.33
2023-03-26T09:36:09.285Z,7.92
2023-03-26T09:38:50.549Z,7.99
2023-03-26T09:41:53.576Z,7.93
2023-03-26T09:47:53.752Z,8.06
2023-03-26T09:50:32.904Z,7.90
2023-03-26T09:53:14.002Z,7.96
2023-03-26T09:55:49.648Z,7.99
2023-03-26T10:01:35.657Z,8.03
2023-03-26T10:04:03.127Z,8.11
2023-03-26T10:06:57.477Z,8.07
2023-03-26T10:09:34.579Z,8.07
2023-03-26T10:12:22.333Z,8.21
2023-03-26T10:15:03.204Z,8.41
2023-03-26T10:18:28.024Z,8.38
2023-03-26T10:21:07.704Z,8.26
2023-03-26T10:24:08.980Z,8.25
2023-03-26T10:27:09.100Z,8.16
2023-03-26T10:30:24.304Z,8.24
2023-03-26T10:33:06.318Z,8.22
2023-03-26T10:36:11.325Z,8.25
2023-03-26T10:39:11.699Z,8.22
2023-03-26T10:42:30.248Z,8.26
2023-03-26T10:45:19.390Z,8.27
2023-03-26T10:48:28.254Z,8.32
2023-03-26T10:51:20.933Z,8.07
2023-03-26T10:54:32.158Z,8.17
2023-03-26T10:57:03.392Z,8.33
2023-03-26T10:59:36.172Z,8.35
2023-03-26T11:02:29.678Z,8.65
2023-03-26T11:05:21.765Z,8.62
2023-03-26T11:08:14.922Z,8.84
2023-03-26T11:11:01.906Z,8.89
2023-03-26T11:13:57.182Z,8.96
2023-03-26T11:16:27.787Z,9.16
2023-03-26T11:19:08.055Z,9.13
2023-03-26T11:21:50.164Z,9.12
2023-03-26T11:24:44.040Z,9.17
2023-03-26T11:30:49.292Z,9.71
2023-03-26T11:33:32.792Z,9.75
2023-03-26T11:36:09.429Z,10.01
2023-03-26T11:38:41.178Z,10.19
2023-03-26T11:41:23.419Z,10.51
2023-03-26T11:43:57.032Z,11.08
2023-03-26T11:47:02.270Z,11.22
2023-03-26T11:49:30.326Z,11.06
2023-03-26T11:52:00.099Z,10.89
2023-03-26T11:54:28.333Z,11.04
2023-03-26T11:57:05.594Z,11.26
2023-03-26T12:00:18.505Z,11.65
2023-03-26T12:02:47.856Z,11.86
2023-03-26T12:05:26.948Z,12.09
2023-03-26T12:08:00.314Z,11.89
2023-03-26T12:10:43.516Z,11.39
2023-03-26T12:13:36.910Z,11.02
2023-03-26T12:16:11.757Z,10.95
2023-03-26T12:18:41.570Z,11.11
2023-03-26T12:21:11.243Z,11.32
2023-03-26T12:23:42.916Z,11.77
2023-03-26T12:26:37.593Z,11.99
2023-03-26T12:29:14.811Z,11.92
2023-03-26T12:31:54.484Z,11.79
2023-03-26T12:34:31.475Z,11.89
2023-03-26T12:37:07.776Z,11.95
2023-03-26T12:40:07.852Z,11.97
2023-03-26T12:44:49.271Z,11.73
2023-03-26T12:45:32.377Z,11.54
2023-03-26T12:48:04.337Z,11.41
2023-03-26T12:50:51.728Z,11.55
2023-03-26T12:53:42.284Z,11.16
2023-03-26T12:59:07.844Z,10.91
2023-03-26T13:01:40.115Z,11.14
2023-03-26T13:04:34.468Z,11.13
2023-03-26T13:07:21.715Z,10.84
2023-03-26T13:10:29.681Z,10.73
2023-03-26T13:13:18.195Z,10.74
2023-03-26T13:15:53.165Z,10.64
2023-03-26T13:18:36.090Z,10.58
2023-03-26T13:21:29.276Z,10.56
2023-03-26T13:24:09.366Z,10.54
2023-03-26T13:27:07.648Z,10.62
2023-03-26T13:29:47.342Z,10.65
2023-03-26T13:32:48.240Z,10.66
2023-03-26T13:35:43.852Z,10.83
2023-03-26T13:38:28.253Z,10.86
2023-03-26T13:41:18.500Z,10.86
2023-03-26T13:44:23.670Z,10.88
2023-03-26T13:47:03.308Z,10.90
2023-03-26T13:49:40.907Z,10.98
2023-03-26T13:52:20.218Z,10.73
2023-03-26T13:54:55.368Z,10.94
2023-03-26T14:00:27.262Z,11.00
2023-03-26T14:03:03.838Z,11.35
2023-03-26T14:05:43.056Z,11.34
2023-03-26T14:08:26.131Z,11.56
2023-03-26T14:11:07.279Z,11.75
2023-03-26T14:13:58.568Z,11.59
2023-03-26T14:16:39.174Z,11.78
2023-03-26T14:22:57.092Z,12.03
2023-03-26T14:25:46.266Z,12.03
2023-03-26T14:28:22.624Z,11.76
2023-03-26T14:31:19.725Z,11.88
2023-03-26T14:33:58.234Z,11.69
2023-03-26T14:37:06.328Z,11.53
2023-03-26T14:40:08.745Z,11.41
2023-03-26T14:42:54.027Z,11.23
2023-03-26T14:45:44.261Z,11.09
2023-03-26T14:48:54.414Z,10.85
2023-03-26T14:51:49.406Z,10.90
2023-03-26T14:54:21.114Z,10.76
2023-03-26T14:57:22.458Z,10.68
2023-03-26T15:00:24.043Z,10.54
2023-03-26T15:03:10.521Z,10.58
2023-03-26T15:06:23.795Z,10.44
2023-03-26T15:09:10.018Z,10.48
2023-03-26T15:11:52.959Z,10.37
2023-03-26T15:14:43.117Z,10.20
2023-03-26T15:17:29.384Z,10.32
2023-03-26T15:20:34.911Z,10.29
2023-03-26T15:23:39.192Z,10.28
2023-03-26T15:26:38.320Z,10.23
2023-03-26T15:29:27.428Z,10.15
2023-03-26T15:32:19.717Z,10.07
2023-03-26T15:34:48.981Z,9.99
2023-03-26T15:37:34.964Z,10.01
2023-03-26T15:40:13.384Z,9.98
2023-03-26T15:42:53.261Z,9.96
2023-03-26T15:45:32.892Z,9.94
2023-03-26T15:48:19.314Z,9.91
2023-03-26T15:50:56.320Z,9.91
2023-03-26T15:53:24.084Z,9.91
2023-03-26T15:56:33.362Z,9.65
2023-03-26T15:59:19.874Z,9.73
2023-03-26T16:02:08.052Z,9.68
2023-03-26T16:05:06.520Z,9.70
2023-03-26T16:08:10.357Z,9.65
2023-03-26T16:10:52.743Z,9.65
2023-03-26T16:13:20.486Z,9.64
2023-03-26T16:16:16.655Z,9.55
2023-03-26T16:18:47.353Z,9.67
2023-03-26T16:21:32.755Z,9.69
2023-03-26T16:24:03.707Z,9.72
2023-03-26T16:27:11.253Z,9.73
2023-03-26T16:30:00.849Z,9.73
2023-03-26T16:32:44.862Z,9.60
2023-03-26T16:35:15.520Z,9.72
2023-03-26T16:41:27.423Z,9.69
2023-03-26T16:44:25.666Z,9.71
2023-03-26T16:47:30.997Z,9.71
2023-03-26T16:53:35.111Z,9.63
2023-03-26T16:56:23.307Z,9.62
2023-03-26T16:59:00.998Z,9.62
2023-03-26T17:01:44.005Z,9.62
2023-03-26T17:04:25.715Z,9.60
2023-03-26T17:07:04.901Z,9.60
2023-03-26T17:09:43.355Z,9.59
2023-03-26T17:12:55.801Z,9.56
2023-03-26T17:15:56.008Z,9.55
2023-03-26T17:18:46.483Z,9.52
2023-03-26T17:21:46.919Z,9.49
2023-03-26T17:24:28.696Z,9.47
2023-03-26T17:27:07.217Z,9.46
2023-03-26T17:30:10.784Z,9.30
2023-03-26T17:33:06.513Z,9.30
2023-03-26T17:35:39.669Z,9.45
2023-03-26T17:38:18.110Z,9.46
2023-03-26T17:40:56.117Z,9.58
2023-03-26T17:46:43.607Z,9.44
2023-03-26T17:49:22.911Z,9.34
2023-03-26T17:52:11.018Z,9.54
2023-03-26T17:54:51.502Z,9.30
2023-03-26T17:57:31.452Z,9.35
2023-03-26T18:00:02.616Z,9.30
2023-03-26T18:08:27.838Z,9.54
2023-03-26T18:11:19.890Z,9.34
2023-03-26T18:14:00.617Z,9.53
2023-03-26T18:16:38.414Z,9.36
2023-03-26T18:19:23.752Z,9.41
2023-03-26T18:22:07.621Z,9.40
2023-03-26T18:24:41.364Z,9.35
2023-03-26T18:30:01.852Z,9.57
2023-03-26T18:32:34.204Z,9.44
2023-03-26T18:35:19.653Z,9.44
2023-03-26T18:37:53.534Z,9.47
2023-03-26T18:40:24.309Z,9.55
2023-03-26T18:43:07.729Z,9.44
2023-03-26T18:45:39.796Z,9.48
2023-03-26T18:48:21.939Z,9.47
2023-03-26T18:51:10.275Z,9.62
2023-03-26T18:53:58.202Z,9.42
2023-03-26T18:56:40.174Z,9.27
2023-03-26T18:59:28.367Z,9.44
2023-03-26T19:01:58.157Z,9.28
2023-03-26T19:04:31.797Z,9.26
2023-03-26T19:07:01.914Z,9.09
2023-03-26T19:09:37.825Z,9.25
2023-03-26T19:12:15.220Z,9.27
2023-03-26T19:15:25.522Z,9.05
2023-03-26T19:18:04.122Z,8.91
2023-03-26T19:20:38.233Z,8.95
2023-03-26T19:23:13.774Z,8.90
2023-03-26T19:25:55.426Z,8.92
2023-03-26T19:28:29.817Z,8.93
2023-03-26T19:31:08.964Z,8.80
2023-03-26T19:33:40.908Z,8.76
2023-03-26T19:36:18.196Z,9.04
2023-03-26T19:38:53.059Z,8.96
2023-03-26T19:41:28.757Z,8.85
2023-03-26T19:44:03.228Z,8.80
2023-03-26T19:46:53.618Z,8.79
2023-03-26T19:49:53.515Z,8.86
2023-03-26T19:52:27.921Z,8.86
2023-03-26T19:55:05.342Z,8.78
2023-03-26T19:57:36.680Z,8.82
2023-03-26T20:00:15.173Z,8.66
2023-03-26T20:02:49.507Z,8.69
2023-03-26T20:05:26.681Z,8.73
2023-03-26T20:07:57.444Z,8.74
2023-03-26T20:10:25.550Z,8.68
2023-03-26T20:12:53.782Z,8.84
2023-03-26T20:15:41.553Z,8.64
2023-03-26T20:18:09.087Z,8.71
2023-03-26T20:20:37.535Z,8.75
2023-03-26T20:23:13.396Z,8.69
2023-03-26T20:25:49.540Z,8.54
2023-03-26T20:28:21.460Z,8.74
2023-03-26T20:30:49.916Z,8.71
2023-03-26T20:33:27.030Z,8.64
2023-03-26T20:35:59.037Z,8.67
2023-03-26T20:38:39.038Z,8.69
2023-03-26T20:41:15.040Z,8.61
2023-03-26T20:43:43.212Z,8.70
2023-03-26T20:46:22.082Z,8.51
2023-03-26T20:48:50.643Z,8.70
2023-03-26T20:51:20.262Z,8.64
2023-03-26T20:53:48.607Z,8.70
2023-03-26T20:56:20.215Z,8.71
2023-03-26T20:59:00.416Z,8.54
2023-03-26T21:01:36.104Z,8.66
2023-03-26T21:04:07.187Z,8.74
2023-03-26T21:06:34.884Z,8.60
2023-03-26T21:09:02.888Z,8.79
2023-03-26T21:11:51.662Z,8.81
2023-03-26T21:14:41.849Z,8.57
2023-03-26T21:17:23.579Z,8.40
2023-03-26T21:19:52.360Z,8.07
2023-03-26T21:23:00.776Z,8.22
2023-03-26T21:25:47.223Z,8.19
2023-03-26T21:28:32.278Z,8.12
2023-03-26T21:31:15.795Z,7.94
2023-03-26T21:33:43.291Z,8.02
2023-03-26T21:36:12.211Z,8.08
2023-03-26T21:38:40.489Z,8.07
2023-03-26T21:41:08.505Z,8.18
2023-03-26T21:43:35.880Z,8.11
2023-03-26T21:46:04.128Z,8.12
2023-03-26T21:48:31.908Z,8.17
2023-03-26T21:51:44.622Z,8.33
2023-03-26T21:54:32.729Z,8.26
2023-03-26T21:57:24.191Z,8.12
2023-03-26T21:59:58.670Z,8.17
2023-03-26T22:02:33.499Z,8.07
2023-03-26T22:05:14.286Z,7.98
2023-03-26T22:08:03.410Z,8.01
2023-03-26T22:10:32.334Z,7.93
2023-03-26T22:13:00.666Z,8.07
2023-03-26T22:15:31.179Z,8.00
2023-03-26T22:18:03.429Z,8.12
2023-03-26T22:20:31.320Z,8.13
2023-03-26T22:23:00.538Z,8.00
2023-03-26T22:25:28.092Z,8.13
2023-03-26T22:27:55.492Z,8.11
2023-03-26T22:30:22.809Z,8.09
2023-03-26T22:32:50.589Z,7.90
2023-03-26T22:35:18.242Z,7.99
2023-03-26T22:37:46.405Z,8.01
2023-03-26T22:40:13.967Z,7.96
2023-03-26T22:42:42.259Z,7.87
2023-03-26T22:45:10.246Z,7.78
2023-03-26T22:47:38.520Z,7.67
2023-03-26T22:50:10.065Z,7.70
2023-03-26T22:52:37.956Z,7.55
2023-03-26T22:55:08.737Z,7.53
2023-03-26T22:57:36.594Z,7.49
2023-03-26T23:00:21.212Z,7.47
2023-03-26T23:02:48.914Z,7.44
2023-03-26T23:05:19.671Z,7.30
2023-03-26T23:07:49.058Z,7.38
2023-03-26T23:10:16.778Z,7.31
2023-03-26T23:12:44.344Z,7.27
2023-03-26T23:15:12.249Z,7.39
2023-03-26T23:17:39.665Z,7.37
2023-03-26T23:20:15.611Z,7.18
2023-03-26T23:22:43.481Z,7.34
2023-03-26T23:25:12.508Z,7.33
2023-03-26T23:27:41.775Z,7.23
2023-03-26T23:30:11.054Z,7.22
2023-03-26T23:32:39.352Z,7.25
2023-03-26T23:35:07.527Z,7.33
2023-03-26T23:37:35.419Z,7.27
2023-03-26T23:40:07.818Z,7.21
2023-03-26T23:42:35.239Z,7.43
2023-03-26T23:45:02.798Z,7.40
2023-03-26T23:47:35.058Z,7.40
2023-03-26T23:50:03.151Z,7.27
2023-03-26T23:52:31.275Z,7.37
2023-03-26T23:55:01.768Z,7.23
2023-03-26T23:57:29.446Z,7.27
2023-03-26T23:59:56.961Z,7.33
